Terminal Aerodrome Forecast
Issued by NWS Bismarck, ND

Home | Current Version | Previous Version | Text Only | Print | Product List | Glossary Off
Versions: 1 2 3 4 5 6 7 8 9 10 11 12 13 14 15 16 17 18 19 20 21

000
FTUS43 KBIS 252300
TAFISN
TAF
KISN 252320Z 2600/2624 01014G22KT P6SM OVC015
     FM260100 01012G19KT P6SM BKN035
     FM261200 01009KT P6SM OVC028
     FM262200 09005KT P6SM BKN028=

USA.gov is the U.S. government's official web portal to all federal, state and local government web resources and services.